FIMP/MRU METAR and TAF weather

Enter ICAO airport designator
Station Type Date Time Source
FIMP METAR 2019/12/07 10:00 UTC NOAA

FIMP 071000Z 06014KT 9999 VCSH FEW015TCU FEW016 30/22 Q1011


Station Type Date Time Source
FIMP Decoded METAR 2019/12/07 10:00 UTC NOAA

Plaisance Mauritius , Mauritius (FIMP) 20-26S 057-40E 57M
Dec 07, 2019 - 05:00 AM EST / 2019.12.07 1000 UTC
Wind: from the ENE (060 degrees) at 16 MPH (14 KT):0
Visibility: greater than 7 mile(s):0
Sky conditions: mostly clear
Weather: showers in the vicinity; Towering cumulus clouds observed
Temperature: 86 F (30 C)
Heat index: 91.8 F (33.2 C):1
Dew Point: 71 F (22 C)
Relative Humidity: 62%
Pressure (altimeter): 29.85 in. Hg (1011 hPa)
ob: FIMP 071000Z 06014KT 9999 VCSH FEW015TCU FEW016 30/22 Q1011
cycle: 10

Station Type Date Time Source
FIMP TAF 2019/12/07 06:18 UTC NOAA

TAF TAF FIMP 070510Z 0706/0812 06010KT 9999 SCT018
TEMPO 0710/0714 7000 -SHRA FEW010 BKN015
BECMG 0716/0718 33005KT

Example: see airport list